sensor_id;sensor_type;location;lat;lon;timestamp;P1;durP1;ratioP1;P2;durP2;ratioP2
11004;SDS011;5555;59.622;16.556;2022-11-20T00:01:20;2.47;;;2.17;;
11004;SDS011;5555;59.622;16.556;2022-11-20T00:03:48;3.37;;;2.00;;
11004;SDS011;5555;59.622;16.556;2022-11-20T00:06:15;2.50;;;2.13;;
11004;SDS011;5555;59.622;16.556;2022-11-20T00:08:42;2.57;;;2.30;;
11004;SDS011;5555;59.622;16.556;2022-11-20T00:11:08;2.13;;;1.90;;
11004;SDS011;5555;59.622;16.556;2022-11-20T00:13:46;4.67;;;1.90;;
11004;SDS011;5555;59.622;16.556;2022-11-20T00:16:14;2.60;;;1.80;;
11004;SDS011;5555;59.622;16.556;2022-11-20T00:18:42;2.83;;;1.80;;
11004;SDS011;5555;59.622;16.556;2022-11-20T00:21:13;2.00;;;1.90;;
11004;SDS011;5555;59.622;16.556;2022-11-20T00:23:44;2.03;;;1.80;;
11004;SDS011;5555;59.622;16.556;2022-11-20T00:26:11;2.47;;;1.80;;
11004;SDS011;5555;59.622;16.556;2022-11-20T00:28:38;1.80;;;1.70;;
11004;SDS011;5555;59.622;16.556;2022-11-20T00:31:06;1.97;;;1.80;;
11004;SDS011;5555;59.622;16.556;2022-11-20T00:33:34;2.20;;;1.83;;
11004;SDS011;5555;59.622;16.556;2022-11-20T00:36:00;1.70;;;1.60;;
11004;SDS011;5555;59.622;16.556;2022-11-20T00:38:26;3.17;;;2.10;;
11004;SDS011;5555;59.622;16.556;2022-11-20T00:40:56;2.90;;;1.73;;
11004;SDS011;5555;59.622;16.556;2022-11-20T00:43:22;2.10;;;1.60;;
11004;SDS011;5555;59.622;16.556;2022-11-20T00:45:48;1.77;;;1.67;;
11004;SDS011;5555;59.622;16.556;2022-11-20T00:48:14;2.23;;;2.00;;
11004;SDS011;5555;59.622;16.556;2022-11-20T00:50:40;2.23;;;2.03;;
11004;SDS011;5555;59.622;16.556;2022-11-20T00:53:06;2.10;;;1.70;;
11004;SDS011;5555;59.622;16.556;2022-11-20T00:55:32;2.27;;;1.77;;
11004;SDS011;5555;59.622;16.556;2022-11-20T00:57:58;2.60;;;2.17;;
11004;SDS011;5555;59.622;16.556;2022-11-20T01:00:23;1.90;;;1.70;;
11004;SDS011;5555;59.622;16.556;2022-11-20T01:02:49;2.10;;;1.77;;
11004;SDS011;5555;59.622;16.556;2022-11-20T01:05:14;2.40;;;1.60;;
11004;SDS011;5555;59.622;16.556;2022-11-20T01:07:40;1.90;;;1.70;;
11004;SDS011;5555;59.622;16.556;2022-11-20T01:10:06;3.27;;;1.90;;
11004;SDS011;5555;59.622;16.556;2022-11-20T01:12:32;1.70;;;1.60;;
11004;SDS011;5555;59.622;16.556;2022-11-20T01:14:57;2.43;;;1.90;;
11004;SDS011;5555;59.622;16.556;2022-11-20T01:17:23;2.93;;;1.70;;
11004;SDS011;5555;59.622;16.556;2022-11-20T01:19:49;1.97;;;1.77;;
11004;SDS011;5555;59.622;16.556;2022-11-20T01:22:15;2.07;;;1.87;;
11004;SDS011;5555;59.622;16.556;2022-11-20T01:24:41;1.70;;;1.60;;
11004;SDS011;5555;59.622;16.556;2022-11-20T01:27:07;2.63;;;1.93;;
11004;SDS011;5555;59.622;16.556;2022-11-20T01:29:32;2.53;;;1.73;;
11004;SDS011;5555;59.622;16.556;2022-11-20T01:31:58;2.67;;;1.70;;
11004;SDS011;5555;59.622;16.556;2022-11-20T01:34:24;1.70;;;1.60;;
11004;SDS011;5555;59.622;16.556;2022-11-20T01:36:50;2.10;;;1.90;;
11004;SDS011;5555;59.622;16.556;2022-11-20T01:39:18;2.07;;;1.87;;
11004;SDS011;5555;59.622;16.556;2022-11-20T01:41:46;2.07;;;1.90;;
11004;SDS011;5555;59.622;16.556;2022-11-20T01:47:12;1.63;;;1.53;;
11004;SDS011;5555;59.622;16.556;2022-11-20T01:49:51;2.00;;;1.77;;
11004;SDS011;5555;59.622;16.556;2022-11-20T01:52:25;2.37;;;1.87;;
11004;SDS011;5555;59.622;16.556;2022-11-20T01:55:07;2.33;;;1.83;;
11004;SDS011;5555;59.622;16.556;2022-11-20T01:57:38;2.20;;;1.70;;
11004;SDS011;5555;59.622;16.556;2022-11-20T02:00:09;1.93;;;1.77;;
11004;SDS011;5555;59.622;16.556;2022-11-20T02:02:37;4.10;;;1.77;;
11004;SDS011;5555;59.622;16.556;2022-11-20T02:05:09;2.13;;;1.90;;
11004;SDS011;5555;59.622;16.556;2022-11-20T02:07:46;2.03;;;1.70;;
11004;SDS011;5555;59.622;16.556;2022-11-20T02:10:12;1.90;;;1.70;;
11004;SDS011;5555;59.622;16.556;2022-11-20T02:12:37;1.63;;;1.53;;
11004;SDS011;5555;59.622;16.556;2022-11-20T02:15:22;1.67;;;1.57;;
11004;SDS011;5555;59.622;16.556;2022-11-20T02:17:47;1.83;;;1.43;;
11004;SDS011;5555;59.622;16.556;2022-11-20T02:20:13;1.50;;;1.40;;
11004;SDS011;5555;59.622;16.556;2022-11-20T02:22:46;1.53;;;1.43;;
11004;SDS011;5555;59.622;16.556;2022-11-20T02:25:18;3.93;;;2.00;;
11004;SDS011;5555;59.622;16.556;2022-11-20T02:27:46;2.20;;;1.77;;
11004;SDS011;5555;59.622;16.556;2022-11-20T02:30:12;1.63;;;1.53;;
11004;SDS011;5555;59.622;16.556;2022-11-20T02:32:38;1.97;;;1.70;;
11004;SDS011;5555;59.622;16.556;2022-11-20T02:35:08;2.20;;;1.80;;
11004;SDS011;5555;59.622;16.556;2022-11-20T02:37:36;5.37;;;1.60;;
11004;SDS011;5555;59.622;16.556;2022-11-20T02:40:05;1.60;;;1.50;;
11004;SDS011;5555;59.622;16.556;2022-11-20T02:42:31;3.07;;;2.13;;
11004;SDS011;5555;59.622;16.556;2022-11-20T02:44:57;1.50;;;1.40;;
11004;SDS011;5555;59.622;16.556;2022-11-20T02:47:22;2.00;;;1.80;;
11004;SDS011;5555;59.622;16.556;2022-11-20T02:49:48;1.70;;;1.60;;
11004;SDS011;5555;59.622;16.556;2022-11-20T02:52:13;2.37;;;1.87;;
11004;SDS011;5555;59.622;16.556;2022-11-20T02:54:39;1.80;;;1.60;;
11004;SDS011;5555;59.622;16.556;2022-11-20T02:57:05;3.07;;;1.67;;
11004;SDS011;5555;59.622;16.556;2022-11-20T02:59:30;2.67;;;1.93;;
11004;SDS011;5555;59.622;16.556;2022-11-20T03:01:56;1.73;;;1.60;;
11004;SDS011;5555;59.622;16.556;2022-11-20T03:04:21;1.90;;;1.73;;
11004;SDS011;5555;59.622;16.556;2022-11-20T03:06:47;2.20;;;1.80;;
11004;SDS011;5555;59.622;16.556;2022-11-20T03:09:13;2.57;;;2.10;;
11004;SDS011;5555;59.622;16.556;2022-11-20T03:11:38;2.83;;;2.27;;
11004;SDS011;5555;59.622;16.556;2022-11-20T03:14:04;2.30;;;2.00;;
11004;SDS011;5555;59.622;16.556;2022-11-20T03:16:30;2.20;;;2.00;;
11004;SDS011;5555;59.622;16.556;2022-11-20T03:18:57;2.70;;;1.70;;
11004;SDS011;5555;59.622;16.556;2022-11-20T03:21:23;3.53;;;2.10;;
11004;SDS011;5555;59.622;16.556;2022-11-20T03:23:49;3.17;;;1.90;;
11004;SDS011;5555;59.622;16.556;2022-11-20T03:28:48;2.40;;;1.70;;
11004;SDS011;5555;59.622;16.556;2022-11-20T03:31:16;2.50;;;2.13;;
11004;SDS011;5555;59.622;16.556;2022-11-20T03:33:43;2.17;;;1.93;;
11004;SDS011;5555;59.622;16.556;2022-11-20T03:36:10;2.10;;;1.90;;
11004;SDS011;5555;59.622;16.556;2022-11-20T03:38:37;3.20;;;2.23;;
11004;SDS011;5555;59.622;16.556;2022-11-20T03:41:05;3.37;;;2.50;;
11004;SDS011;5555;59.622;16.556;2022-11-20T03:43:38;1.90;;;1.70;;
11004;SDS011;5555;59.622;16.556;2022-11-20T03:46:04;2.20;;;2.00;;
11004;SDS011;5555;59.622;16.556;2022-11-20T03:48:30;3.13;;;2.43;;
11004;SDS011;5555;59.622;16.556;2022-11-20T03:51:09;1.93;;;1.73;;
11004;SDS011;5555;59.622;16.556;2022-11-20T03:53:46;1.80;;;1.70;;
11004;SDS011;5555;59.622;16.556;2022-11-20T03:56:14;1.80;;;1.67;;
11004;SDS011;5555;59.622;16.556;2022-11-20T03:58:41;1.97;;;1.70;;
11004;SDS011;5555;59.622;16.556;2022-11-20T04:01:08;2.00;;;1.73;;
11004;SDS011;5555;59.622;16.556;2022-11-20T04:03:39;1.90;;;1.60;;
11004;SDS011;5555;59.622;16.556;2022-11-20T04:06:06;1.90;;;1.67;;
11004;SDS011;5555;59.622;16.556;2022-11-20T04:08:34;2.20;;;1.57;;
11004;SDS011;5555;59.622;16.556;2022-11-20T04:11:20;2.77;;;1.67;;
11004;SDS011;5555;59.622;16.556;2022-11-20T04:13:50;2.43;;;1.43;;
11004;SDS011;5555;59.622;16.556;2022-11-20T04:16:18;1.87;;;1.43;;
11004;SDS011;5555;59.622;16.556;2022-11-20T04:18:44;1.97;;;1.70;;
11004;SDS011;5555;59.622;16.556;2022-11-20T04:21:10;2.57;;;1.60;;
11004;SDS011;5555;59.622;16.556;2022-11-20T04:23:36;1.67;;;1.30;;
11004;SDS011;5555;59.622;16.556;2022-11-20T04:26:06;1.73;;;1.37;;
11004;SDS011;5555;59.622;16.556;2022-11-20T04:28:32;1.60;;;1.50;;
11004;SDS011;5555;59.622;16.556;2022-11-20T04:31:10;1.90;;;1.73;;
11004;SDS011;5555;59.622;16.556;2022-11-20T04:33:38;1.37;;;1.13;;
11004;SDS011;5555;59.622;16.556;2022-11-20T04:36:06;1.77;;;1.50;;
11004;SDS011;5555;59.622;16.556;2022-11-20T04:38:39;1.40;;;1.30;;
11004;SDS011;5555;59.622;16.556;2022-11-20T04:41:05;1.30;;;1.20;;
11004;SDS011;5555;59.622;16.556;2022-11-20T04:43:32;1.67;;;1.57;;
11004;SDS011;5555;59.622;16.556;2022-11-20T04:45:58;1.37;;;1.20;;
11004;SDS011;5555;59.622;16.556;2022-11-20T04:48:26;1.83;;;1.40;;
11004;SDS011;5555;59.622;16.556;2022-11-20T04:50:53;1.90;;;1.10;;
11004;SDS011;5555;59.622;16.556;2022-11-20T04:53:19;1.20;;;1.10;;
11004;SDS011;5555;59.622;16.556;2022-11-20T04:55:46;1.40;;;1.30;;
11004;SDS011;5555;59.622;16.556;2022-11-20T04:58:12;1.30;;;1.20;;
11004;SDS011;5555;59.622;16.556;2022-11-20T05:00:38;2.50;;;1.30;;
11004;SDS011;5555;59.622;16.556;2022-11-20T05:03:04;1.87;;;1.40;;
11004;SDS011;5555;59.622;16.556;2022-11-20T05:05:30;2.80;;;1.67;;
11004;SDS011;5555;59.622;16.556;2022-11-20T05:07:57;1.13;;;1.03;;
11004;SDS011;5555;59.622;16.556;2022-11-20T05:10:23;1.63;;;1.30;;
11004;SDS011;5555;59.622;16.556;2022-11-20T05:12:52;1.50;;;1.40;;
11004;SDS011;5555;59.622;16.556;2022-11-20T05:15:18;2.10;;;1.20;;
11004;SDS011;5555;59.622;16.556;2022-11-20T05:17:47;2.20;;;1.73;;
11004;SDS011;5555;59.622;16.556;2022-11-20T05:20:14;1.47;;;1.37;;
11004;SDS011;5555;59.622;16.556;2022-11-20T05:22:39;2.10;;;1.43;;
11004;SDS011;5555;59.622;16.556;2022-11-20T05:25:05;2.17;;;1.27;;
11004;SDS011;5555;59.622;16.556;2022-11-20T05:27:31;1.40;;;1.20;;
11004;SDS011;5555;59.622;16.556;2022-11-20T05:29:57;1.70;;;1.33;;
11004;SDS011;5555;59.622;16.556;2022-11-20T05:32:22;1.67;;;1.40;;
11004;SDS011;5555;59.622;16.556;2022-11-20T05:34:50;1.60;;;1.20;;
11004;SDS011;5555;59.622;16.556;2022-11-20T05:37:18;1.43;;;1.30;;
11004;SDS011;5555;59.622;16.556;2022-11-20T05:39:44;2.23;;;1.33;;
11004;SDS011;5555;59.622;16.556;2022-11-20T05:42:10;2.13;;;1.20;;
11004;SDS011;5555;59.622;16.556;2022-11-20T05:44:54;1.70;;;1.37;;
11004;SDS011;5555;59.622;16.556;2022-11-20T05:47:19;1.73;;;1.20;;
11004;SDS011;5555;59.622;16.556;2022-11-20T05:49:45;1.73;;;1.10;;
11004;SDS011;5555;59.622;16.556;2022-11-20T05:52:11;2.50;;;1.40;;
11004;SDS011;5555;59.622;16.556;2022-11-20T05:54:36;2.83;;;1.30;;
11004;SDS011;5555;59.622;16.556;2022-11-20T05:57:02;1.70;;;1.17;;
11004;SDS011;5555;59.622;16.556;2022-11-20T05:59:27;4.37;;;1.20;;
11004;SDS011;5555;59.622;16.556;2022-11-20T06:01:53;2.07;;;1.27;;
11004;SDS011;5555;59.622;16.556;2022-11-20T06:04:19;2.07;;;1.10;;
11004;SDS011;5555;59.622;16.556;2022-11-20T06:06:44;1.43;;;1.17;;
11004;SDS011;5555;59.622;16.556;2022-11-20T06:09:10;1.10;;;1.00;;
11004;SDS011;5555;59.622;16.556;2022-11-20T06:11:36;1.10;;;1.00;;
11004;SDS011;5555;59.622;16.556;2022-11-20T06:14:01;1.23;;;1.10;;
11004;SDS011;5555;59.622;16.556;2022-11-20T06:16:27;1.30;;;1.10;;
11004;SDS011;5555;59.622;16.556;2022-11-20T06:18:52;1.10;;;1.00;;
11004;SDS011;5555;59.622;16.556;2022-11-20T06:21:19;1.17;;;1.07;;
11004;SDS011;5555;59.622;16.556;2022-11-20T06:23:46;1.90;;;1.13;;
11004;SDS011;5555;59.622;16.556;2022-11-20T06:26:13;1.50;;;1.00;;
11004;SDS011;5555;59.622;16.556;2022-11-20T06:28:40;3.33;;;1.30;;
11004;SDS011;5555;59.622;16.556;2022-11-20T06:31:06;1.90;;;0.90;;
11004;SDS011;5555;59.622;16.556;2022-11-20T06:33:34;1.00;;;0.90;;
11004;SDS011;5555;59.622;16.556;2022-11-20T06:36:00;1.03;;;0.93;;
11004;SDS011;5555;59.622;16.556;2022-11-20T06:38:27;1.70;;;1.00;;
11004;SDS011;5555;59.622;16.556;2022-11-20T06:40:53;1.33;;;1.00;;
11004;SDS011;5555;59.622;16.556;2022-11-20T06:43:20;0.83;;;0.80;;
11004;SDS011;5555;59.622;16.556;2022-11-20T06:45:57;1.97;;;0.90;;
11004;SDS011;5555;59.622;16.556;2022-11-20T06:48:23;1.23;;;0.80;;
11004;SDS011;5555;59.622;16.556;2022-11-20T06:50:51;2.40;;;1.03;;
11004;SDS011;5555;59.622;16.556;2022-11-20T06:53:16;0.70;;;0.70;;
11004;SDS011;5555;59.622;16.556;2022-11-20T06:55:42;0.97;;;0.80;;
11004;SDS011;5555;59.622;16.556;2022-11-20T06:58:09;0.97;;;0.80;;
11004;SDS011;5555;59.622;16.556;2022-11-20T07:00:35;1.13;;;0.80;;
11004;SDS011;5555;59.622;16.556;2022-11-20T07:03:04;3.33;;;0.83;;
11004;SDS011;5555;59.622;16.556;2022-11-20T07:05:30;0.80;;;0.73;;
11004;SDS011;5555;59.622;16.556;2022-11-20T07:07:56;1.80;;;0.70;;
11004;SDS011;5555;59.622;16.556;2022-11-20T07:10:22;0.90;;;0.70;;
11004;SDS011;5555;59.622;16.556;2022-11-20T07:12:49;1.57;;;0.60;;
11004;SDS011;5555;59.622;16.556;2022-11-20T07:15:15;1.00;;;0.73;;
11004;SDS011;5555;59.622;16.556;2022-11-20T07:17:42;0.70;;;0.70;;
11004;SDS011;5555;59.622;16.556;2022-11-20T07:20:08;0.57;;;0.53;;
11004;SDS011;5555;59.622;16.556;2022-11-20T07:22:34;0.67;;;0.67;;
11004;SDS011;5555;59.622;16.556;2022-11-20T07:24:59;1.70;;;0.70;;
11004;SDS011;5555;59.622;16.556;2022-11-20T07:27:26;0.90;;;0.70;;
11004;SDS011;5555;59.622;16.556;2022-11-20T07:29:52;0.70;;;0.57;;
11004;SDS011;5555;59.622;16.556;2022-11-20T07:32:18;0.90;;;0.80;;
11004;SDS011;5555;59.622;16.556;2022-11-20T07:34:43;2.23;;;0.83;;
11004;SDS011;5555;59.622;16.556;2022-11-20T07:37:09;0.97;;;0.80;;
11004;SDS011;5555;59.622;16.556;2022-11-20T07:39:35;1.13;;;0.73;;
11004;SDS011;5555;59.622;16.556;2022-11-20T07:42:00;0.60;;;0.60;;
11004;SDS011;5555;59.622;16.556;2022-11-20T07:44:26;0.80;;;0.70;;
11004;SDS011;5555;59.622;16.556;2022-11-20T07:46:51;1.17;;;0.87;;
11004;SDS011;5555;59.622;16.556;2022-11-20T07:49:17;1.03;;;0.83;;
11004;SDS011;5555;59.622;16.556;2022-11-20T07:51:43;1.03;;;0.80;;
11004;SDS011;5555;59.622;16.556;2022-11-20T07:54:08;0.60;;;0.57;;
11004;SDS011;5555;59.622;16.556;2022-11-20T07:56:34;0.60;;;0.60;;
11004;SDS011;5555;59.622;16.556;2022-11-20T07:58:59;1.07;;;0.70;;
11004;SDS011;5555;59.622;16.556;2022-11-20T08:01:25;0.73;;;0.60;;
11004;SDS011;5555;59.622;16.556;2022-11-20T08:03:51;0.70;;;0.63;;
11004;SDS011;5555;59.622;16.556;2022-11-20T08:06:16;0.83;;;0.70;;
11004;SDS011;5555;59.622;16.556;2022-11-20T08:08:44;0.40;;;0.40;;
11004;SDS011;5555;59.622;16.556;2022-11-20T08:11:10;0.70;;;0.70;;
11004;SDS011;5555;59.622;16.556;2022-11-20T08:13:54;0.60;;;0.50;;
11004;SDS011;5555;59.622;16.556;2022-11-20T08:16:47;1.03;;;0.60;;
11004;SDS011;5555;59.622;16.556;2022-11-20T08:19:15;0.50;;;0.50;;
11004;SDS011;5555;59.622;16.556;2022-11-20T08:21:42;1.83;;;0.60;;
11004;SDS011;5555;59.622;16.556;2022-11-20T08:24:08;1.10;;;0.70;;
11004;SDS011;5555;59.622;16.556;2022-11-20T08:26:35;0.73;;;0.60;;
11004;SDS011;5555;59.622;16.556;2022-11-20T08:29:02;4.97;;;1.03;;
11004;SDS011;5555;59.622;16.556;2022-11-20T08:31:28;1.63;;;0.67;;
11004;SDS011;5555;59.622;16.556;2022-11-20T08:33:55;0.60;;;0.60;;
11004;SDS011;5555;59.622;16.556;2022-11-20T08:36:21;2.10;;;0.40;;
11004;SDS011;5555;59.622;16.556;2022-11-20T08:38:51;0.67;;;0.50;;
11004;SDS011;5555;59.622;16.556;2022-11-20T08:41:20;0.40;;;0.40;;
11004;SDS011;5555;59.622;16.556;2022-11-20T08:46:23;0.73;;;0.40;;
11004;SDS011;5555;59.622;16.556;2022-11-20T08:48:51;1.53;;;0.70;;
11004;SDS011;5555;59.622;16.556;2022-11-20T08:51:17;0.60;;;0.60;;
11004;SDS011;5555;59.622;16.556;2022-11-20T08:53:44;0.93;;;0.70;;
11004;SDS011;5555;59.622;16.556;2022-11-20T08:56:09;0.40;;;0.40;;
11004;SDS011;5555;59.622;16.556;2022-11-20T08:58:36;1.33;;;0.70;;
11004;SDS011;5555;59.622;16.556;2022-11-20T09:01:03;0.90;;;0.63;;
11004;SDS011;5555;59.622;16.556;2022-11-20T09:03:28;1.10;;;0.60;;
11004;SDS011;5555;59.622;16.556;2022-11-20T09:05:58;1.60;;;0.73;;
11004;SDS011;5555;59.622;16.556;2022-11-20T09:08:33;1.70;;;0.60;;
11004;SDS011;5555;59.622;16.556;2022-11-20T09:11:00;0.90;;;0.80;;
11004;SDS011;5555;59.622;16.556;2022-11-20T09:13:29;1.10;;;0.87;;
11004;SDS011;5555;59.622;16.556;2022-11-20T09:15:55;1.83;;;1.00;;
11004;SDS011;5555;59.622;16.556;2022-11-20T09:18:23;2.00;;;0.90;;
11004;SDS011;5555;59.622;16.556;2022-11-20T09:20:49;0.70;;;0.70;;
11004;SDS011;5555;59.622;16.556;2022-11-20T09:23:15;0.70;;;0.70;;
11004;SDS011;5555;59.622;16.556;2022-11-20T09:25:42;1.40;;;0.70;;
11004;SDS011;5555;59.622;16.556;2022-11-20T09:28:08;0.87;;;0.80;;
11004;SDS011;5555;59.622;16.556;2022-11-20T09:30:34;1.17;;;1.00;;
11004;SDS011;5555;59.622;16.556;2022-11-20T09:33:00;0.87;;;0.80;;
11004;SDS011;5555;59.622;16.556;2022-11-20T09:35:25;1.17;;;0.70;;
11004;SDS011;5555;59.622;16.556;2022-11-20T09:37:51;1.03;;;0.70;;
11004;SDS011;5555;59.622;16.556;2022-11-20T09:40:21;1.40;;;0.80;;
11004;SDS011;5555;59.622;16.556;2022-11-20T09:42:57;1.80;;;1.00;;
11004;SDS011;5555;59.622;16.556;2022-11-20T09:48:45;1.37;;;1.00;;
11004;SDS011;5555;59.622;16.556;2022-11-20T09:51:16;1.37;;;1.00;;
11004;SDS011;5555;59.622;16.556;2022-11-20T09:56:24;1.07;;;0.97;;
11004;SDS011;5555;59.622;16.556;2022-11-20T09:58:53;1.57;;;0.90;;
11004;SDS011;5555;59.622;16.556;2022-11-20T10:01:23;1.30;;;1.00;;
11004;SDS011;5555;59.622;16.556;2022-11-20T10:04:01;1.40;;;0.93;;
11004;SDS011;5555;59.622;16.556;2022-11-20T10:06:52;1.13;;;0.77;;
11004;SDS011;5555;59.622;16.556;2022-11-20T10:09:40;1.10;;;1.00;;
11004;SDS011;5555;59.622;16.556;2022-11-20T10:19:59;0.87;;;0.70;;
11004;SDS011;5555;59.622;16.556;2022-11-20T10:22:44;1.00;;;0.90;;
11004;SDS011;5555;59.622;16.556;2022-11-20T10:25:37;1.37;;;1.03;;
11004;SDS011;5555;59.622;16.556;2022-11-20T10:30:34;1.33;;;0.93;;
11004;SDS011;5555;59.622;16.556;2022-11-20T10:33:04;2.20;;;1.10;;
11004;SDS011;5555;59.622;16.556;2022-11-20T10:38:25;1.37;;;1.20;;
11004;SDS011;5555;59.622;16.556;2022-11-20T10:41:01;1.17;;;1.07;;
11004;SDS011;5555;59.622;16.556;2022-11-20T10:43:46;2.67;;;1.13;;
11004;SDS011;5555;59.622;16.556;2022-11-20T10:46:17;1.37;;;1.10;;
11004;SDS011;5555;59.622;16.556;2022-11-20T10:48:47;1.73;;;1.00;;
11004;SDS011;5555;59.622;16.556;2022-11-20T10:53:58;5.60;;;1.40;;
11004;SDS011;5555;59.622;16.556;2022-11-20T10:56:44;3.23;;;1.20;;
11004;SDS011;5555;59.622;16.556;2022-11-20T11:02:24;1.60;;;0.90;;
11004;SDS011;5555;59.622;16.556;2022-11-20T11:04:58;1.27;;;1.17;;
11004;SDS011;5555;59.622;16.556;2022-11-20T11:07:36;2.20;;;1.20;;
11004;SDS011;5555;59.622;16.556;2022-11-20T11:10:12;1.27;;;1.10;;
11004;SDS011;5555;59.622;16.556;2022-11-20T11:12:45;1.90;;;1.37;;
11004;SDS011;5555;59.622;16.556;2022-11-20T11:17:53;1.87;;;1.50;;
11004;SDS011;5555;59.622;16.556;2022-11-20T11:20:20;1.90;;;1.70;;
11004;SDS011;5555;59.622;16.556;2022-11-20T11:25:26;2.20;;;1.10;;
11004;SDS011;5555;59.622;16.556;2022-11-20T11:27:52;3.60;;;1.30;;
11004;SDS011;5555;59.622;16.556;2022-11-20T11:30:21;1.60;;;1.17;;
11004;SDS011;5555;59.622;16.556;2022-11-20T11:32:48;1.10;;;1.00;;
11004;SDS011;5555;59.622;16.556;2022-11-20T11:37:46;1.23;;;0.97;;
11004;SDS011;5555;59.622;16.556;2022-11-20T11:40:13;1.20;;;1.10;;
11004;SDS011;5555;59.622;16.556;2022-11-20T11:42:44;1.20;;;1.10;;
11004;SDS011;5555;59.622;16.556;2022-11-20T11:45:17;2.20;;;1.10;;
11004;SDS011;5555;59.622;16.556;2022-11-20T11:52:36;2.20;;;1.30;;
11004;SDS011;5555;59.622;16.556;2022-11-20T11:55:05;1.77;;;1.20;;
11004;SDS011;5555;59.622;16.556;2022-11-20T11:57:47;2.50;;;1.20;;
11004;SDS011;5555;59.622;16.556;2022-11-20T12:00:19;1.63;;;1.30;;
11004;SDS011;5555;59.622;16.556;2022-11-20T12:07:53;1.40;;;1.27;;
11004;SDS011;5555;59.622;16.556;2022-11-20T12:10:28;1.73;;;1.47;;
11004;SDS011;5555;59.622;16.556;2022-11-20T12:16:02;1.97;;;1.43;;
11004;SDS011;5555;59.622;16.556;2022-11-20T12:18:29;3.37;;;1.60;;
11004;SDS011;5555;59.622;16.556;2022-11-20T12:43:46;1.70;;;1.43;;
11004;SDS011;5555;59.622;16.556;2022-11-20T13:08:06;1.20;;;1.10;;
11004;SDS011;5555;59.622;16.556;2022-11-20T13:10:49;1.00;;;0.90;;
11004;SDS011;5555;59.622;16.556;2022-11-20T13:16:11;1.40;;;1.20;;
11004;SDS011;5555;59.622;16.556;2022-11-20T13:18:49;1.57;;;1.30;;
11004;SDS011;5555;59.622;16.556;2022-11-20T13:21:16;1.43;;;1.20;;
11004;SDS011;5555;59.622;16.556;2022-11-20T13:23:43;2.97;;;1.93;;
11004;SDS011;5555;59.622;16.556;2022-11-20T13:26:28;1.30;;;1.20;;
11004;SDS011;5555;59.622;16.556;2022-11-20T13:29:07;2.07;;;1.13;;
11004;SDS011;5555;59.622;16.556;2022-11-20T13:31:38;1.17;;;1.03;;
11004;SDS011;5555;59.622;16.556;2022-11-20T13:34:10;1.20;;;1.10;;
11004;SDS011;5555;59.622;16.556;2022-11-20T13:36:48;1.40;;;1.30;;
11004;SDS011;5555;59.622;16.556;2022-11-20T13:39:25;1.27;;;1.00;;
11004;SDS011;5555;59.622;16.556;2022-11-20T13:41:56;1.50;;;1.30;;
11004;SDS011;5555;59.622;16.556;2022-11-20T13:44:29;2.07;;;1.50;;
11004;SDS011;5555;59.622;16.556;2022-11-20T13:47:23;1.40;;;1.30;;
11004;SDS011;5555;59.622;16.556;2022-11-20T13:49:51;2.97;;;1.30;;
11004;SDS011;5555;59.622;16.556;2022-11-20T13:57:47;1.60;;;1.07;;
11004;SDS011;5555;59.622;16.556;2022-11-20T14:00:24;1.30;;;1.20;;
11004;SDS011;5555;59.622;16.556;2022-11-20T14:05:31;1.20;;;1.10;;
11004;SDS011;5555;59.622;16.556;2022-11-20T14:08:00;3.20;;;1.33;;
11004;SDS011;5555;59.622;16.556;2022-11-20T14:10:30;2.40;;;1.47;;
11004;SDS011;5555;59.622;16.556;2022-11-20T14:12:56;2.97;;;1.57;;
11004;SDS011;5555;59.622;16.556;2022-11-20T14:17:55;1.60;;;1.50;;
11004;SDS011;5555;59.622;16.556;2022-11-20T14:20:21;1.50;;;1.40;;
11004;SDS011;5555;59.622;16.556;2022-11-20T14:22:51;2.20;;;1.70;;
11004;SDS011;5555;59.622;16.556;2022-11-20T14:25:19;2.03;;;1.50;;
11004;SDS011;5555;59.622;16.556;2022-11-20T14:27:50;1.20;;;1.10;;
11004;SDS011;5555;59.622;16.556;2022-11-20T14:30:21;1.20;;;1.10;;
11004;SDS011;5555;59.622;16.556;2022-11-20T14:32:53;1.93;;;1.53;;
11004;SDS011;5555;59.622;16.556;2022-11-20T14:35:25;3.47;;;1.50;;
11004;SDS011;5555;59.622;16.556;2022-11-20T14:37:52;1.57;;;1.47;;
11004;SDS011;5555;59.622;16.556;2022-11-20T14:42:49;1.73;;;1.60;;
11004;SDS011;5555;59.622;16.556;2022-11-20T14:45:14;1.53;;;1.40;;
11004;SDS011;5555;59.622;16.556;2022-11-20T14:47:41;2.10;;;1.90;;
11004;SDS011;5555;59.622;16.556;2022-11-20T14:50:12;2.07;;;1.87;;
11004;SDS011;5555;59.622;16.556;2022-11-20T14:53:00;2.70;;;1.87;;
11004;SDS011;5555;59.622;16.556;2022-11-20T14:55:33;1.60;;;1.50;;
11004;SDS011;5555;59.622;16.556;2022-11-20T14:58:03;1.70;;;1.60;;
11004;SDS011;5555;59.622;16.556;2022-11-20T15:00:30;1.67;;;1.57;;
11004;SDS011;5555;59.622;16.556;2022-11-20T15:02:58;1.77;;;1.67;;
11004;SDS011;5555;59.622;16.556;2022-11-20T15:05:25;2.30;;;1.70;;
11004;SDS011;5555;59.622;16.556;2022-11-20T15:08:09;2.60;;;1.67;;
11004;SDS011;5555;59.622;16.556;2022-11-20T15:10:37;1.90;;;1.73;;
11004;SDS011;5555;59.622;16.556;2022-11-20T15:13:10;2.10;;;1.70;;
11004;SDS011;5555;59.622;16.556;2022-11-20T15:18:18;2.20;;;2.00;;
11004;SDS011;5555;59.622;16.556;2022-11-20T15:20:46;2.17;;;1.90;;
11004;SDS011;5555;59.622;16.556;2022-11-20T15:23:17;2.30;;;2.10;;
11004;SDS011;5555;59.622;16.556;2022-11-20T15:25:44;2.50;;;1.87;;
11004;SDS011;5555;59.622;16.556;2022-11-20T15:30:52;2.17;;;1.97;;
11004;SDS011;5555;59.622;16.556;2022-11-20T15:33:17;2.57;;;2.17;;
11004;SDS011;5555;59.622;16.556;2022-11-20T15:35:43;3.20;;;2.10;;
11004;SDS011;5555;59.622;16.556;2022-11-20T15:38:10;2.67;;;2.03;;
11004;SDS011;5555;59.622;16.556;2022-11-20T15:40:35;2.03;;;1.83;;
11004;SDS011;5555;59.622;16.556;2022-11-20T15:43:01;4.40;;;2.00;;
11004;SDS011;5555;59.622;16.556;2022-11-20T15:45:28;2.27;;;1.73;;
11004;SDS011;5555;59.622;16.556;2022-11-20T15:48:00;1.83;;;1.73;;
11004;SDS011;5555;59.622;16.556;2022-11-20T15:50:29;2.07;;;1.90;;
11004;SDS011;5555;59.622;16.556;2022-11-20T15:52:59;2.00;;;1.53;;
11004;SDS011;5555;59.622;16.556;2022-11-20T15:55:25;2.07;;;1.57;;
11004;SDS011;5555;59.622;16.556;2022-11-20T15:57:51;2.30;;;2.00;;
11004;SDS011;5555;59.622;16.556;2022-11-20T16:00:16;2.70;;;2.17;;
11004;SDS011;5555;59.622;16.556;2022-11-20T16:02:42;2.30;;;2.10;;
11004;SDS011;5555;59.622;16.556;2022-11-20T16:05:11;2.03;;;1.83;;
11004;SDS011;5555;59.622;16.556;2022-11-20T16:07:38;2.77;;;2.03;;
11004;SDS011;5555;59.622;16.556;2022-11-20T16:10:04;2.37;;;1.80;;
11004;SDS011;5555;59.622;16.556;2022-11-20T16:12:30;2.93;;;2.20;;
11004;SDS011;5555;59.622;16.556;2022-11-20T16:15:14;1.93;;;1.70;;
11004;SDS011;5555;59.622;16.556;2022-11-20T16:17:58;3.40;;;2.20;;
11004;SDS011;5555;59.622;16.556;2022-11-20T16:20:23;1.93;;;1.70;;
11004;SDS011;5555;59.622;16.556;2022-11-20T16:22:49;2.43;;;1.77;;
11004;SDS011;5555;59.622;16.556;2022-11-20T16:25:14;1.83;;;1.60;;
11004;SDS011;5555;59.622;16.556;2022-11-20T16:27:40;1.73;;;1.63;;
11004;SDS011;5555;59.622;16.556;2022-11-20T16:30:06;1.67;;;1.57;;
11004;SDS011;5555;59.622;16.556;2022-11-20T16:32:32;1.40;;;1.20;;
11004;SDS011;5555;59.622;16.556;2022-11-20T16:34:58;2.40;;;1.80;;
11004;SDS011;5555;59.622;16.556;2022-11-20T16:37:24;2.43;;;1.30;;
11004;SDS011;5555;59.622;16.556;2022-11-20T16:39:49;2.10;;;1.63;;
11004;SDS011;5555;59.622;16.556;2022-11-20T16:42:15;2.13;;;1.60;;
11004;SDS011;5555;59.622;16.556;2022-11-20T16:44:40;2.63;;;1.60;;
11004;SDS011;5555;59.622;16.556;2022-11-20T16:47:06;2.50;;;1.43;;
11004;SDS011;5555;59.622;16.556;2022-11-20T16:49:32;4.23;;;2.03;;
11004;SDS011;5555;59.622;16.556;2022-11-20T16:51:58;3.40;;;1.80;;
11004;SDS011;5555;59.622;16.556;2022-11-20T16:54:23;1.77;;;1.43;;
11004;SDS011;5555;59.622;16.556;2022-11-20T16:56:49;2.00;;;1.83;;